Time;durP1;ratioP1;P1;durP2;ratioP2;P2;SDS_P1;SDS_P2;PMS_P1;PMS_P2;Temp;Humidity;BMP_temperature;BMP_pressure;BME280_temperature;BME280_humidity;BME280_pressure;Samples;Min_cycle;Max_cycle;Signal;HPM_P1;HPM_P2
2021/12/31 00:01:25;;;;;;;13.20;7.70;;;14.50;99.90;;;;;;5037060;28;20200;-82
2021/12/31 00:03:52;;;;;;;8.53;5.37;;;14.50;99.90;;;;;;5053573;28;20592;-78
2021/12/31 00:06:23;;;;;;;42.37;24.27;;;14.50;99.90;;;;;;5054274;28;20208;-78
2021/12/31 00:08:49;;;;;;;40.88;25.02;;;14.50;99.90;;;;;;5052599;28;20218;-79
2021/12/31 00:11:14;;;;;;;44.30;28.67;;;14.50;99.90;;;;;;5071254;28;20188;-81
2021/12/31 00:13:40;;;;;;;16.67;10.40;;;14.50;99.90;;;;;;5070008;28;20363;-77
2021/12/31 00:16:07;;;;;;;7.55;4.47;;;14.40;99.90;;;;;;5052684;28;20231;-79
2021/12/31 00:18:33;;;;;;;17.98;11.02;;;14.40;99.90;;;;;;5052720;28;20192;-81
2021/12/31 00:20:59;;;;;;;11.87;7.60;;;14.40;99.90;;;;;;5069997;28;20608;-80
2021/12/31 00:23:26;;;;;;;9.52;7.18;;;14.40;99.90;;;;;;5053161;28;20256;-79
2021/12/31 00:25:53;;;;;;;10.93;7.40;;;14.50;99.90;;;;;;5070578;28;20546;-78
2021/12/31 00:28:19;;;;;;;5.28;3.80;;;14.50;99.90;;;;;;5071318;28;20260;-82
2021/12/31 00:30:51;;;;;;;3.17;2.77;;;14.40;99.90;;;;;;5069907;28;20192;-79
2021/12/31 00:33:17;;;;;;;5.40;4.67;;;14.40;99.90;;;;;;5069631;28;20192;-77
2021/12/31 00:35:42;;;;;;;4.37;3.37;;;14.50;99.90;;;;;;5071116;28;20196;-77
2021/12/31 00:38:08;;;;;;;4.17;3.17;;;14.40;99.90;;;;;;5019905;28;20202;-78
2021/12/31 00:40:34;;;;;;;2.27;1.93;;;14.50;99.90;;;;;;5071217;28;20663;-79
2021/12/31 00:43:00;;;;;;;1.75;1.33;;;14.40;99.90;;;;;;5070464;28;20196;-76
2021/12/31 00:45:27;;;;;;;1.83;1.50;;;14.30;99.90;;;;;;5052484;28;20899;-78
2021/12/31 00:47:54;;;;;;;2.67;1.00;;;14.30;99.90;;;;;;5069807;28;20199;-81
2021/12/31 00:50:20;;;;;;;1.50;1.13;;;14.40;99.90;;;;;;5069586;28;20283;-78
2021/12/31 00:52:46;;;;;;;1.13;0.90;;;14.30;99.90;;;;;;5069424;28;20283;-78
2021/12/31 00:55:13;;;;;;;1.17;1.07;;;14.30;99.90;;;;;;5052560;28;20204;-80
2021/12/31 00:57:41;;;;;;;2.23;0.90;;;14.30;99.90;;;;;;5069197;28;20186;-81
2021/12/31 01:00:09;;;;;;;2.77;1.03;;;14.20;99.90;;;;;;5069453;28;20235;-78
2021/12/31 01:02:35;;;;;;;1.80;1.17;;;14.30;99.90;;;;;;5069378;28;20208;-80
2021/12/31 01:05:03;;;;;;;1.33;1.00;;;14.30;99.90;;;;;;5052719;28;20539;-81
2021/12/31 01:07:29;;;;;;;0.97;0.80;;;14.30;99.90;;;;;;5069165;28;20224;-79
2021/12/31 01:09:55;;;;;;;1.23;1.00;;;14.30;99.90;;;;;;5052627;28;20203;-79
2021/12/31 01:12:23;;;;;;;1.63;0.73;;;14.30;99.90;;;;;;5052647;28;20200;-79
2021/12/31 01:14:59;;;;;;;1.63;0.90;;;14.20;99.90;;;;;;5051938;28;20192;-80
2021/12/31 01:20:04;;;;;;;0.97;0.90;;;14.20;99.90;;;;;;5071198;28;20720;-79
2021/12/31 01:22:32;;;;;;;1.57;0.90;;;14.20;99.90;;;;;;5073231;28;20275;-78
2021/12/31 01:24:58;;;;;;;2.40;0.80;;;14.20;99.90;;;;;;5072643;28;20584;-79
2021/12/31 01:27:24;;;;;;;2.00;0.80;;;14.20;99.90;;;;;;5072609;28;20219;-78
2021/12/31 01:29:50;;;;;;;1.13;0.80;;;14.20;99.90;;;;;;5074171;28;20659;-79
2021/12/31 01:32:16;;;;;;;0.97;0.70;;;14.30;99.90;;;;;;5073168;28;20283;-81
2021/12/31 01:34:42;;;;;;;0.63;0.60;;;14.20;99.90;;;;;;5056131;28;20194;-78
2021/12/31 01:37:09;;;;;;;1.40;0.83;;;14.20;99.90;;;;;;5072331;28;20176;-78
2021/12/31 01:39:35;;;;;;;0.97;0.80;;;14.10;99.90;;;;;;5073977;28;20243;-79
2021/12/31 01:42:03;;;;;;;0.97;0.73;;;14.10;99.90;;;;;;5055952;28;20784;-81
2021/12/31 01:44:37;;;;;;;1.47;0.90;;;14.00;99.90;;;;;;5072633;28;20326;-79
2021/12/31 01:47:09;;;;;;;1.70;0.80;;;13.90;99.90;;;;;;5056470;28;20232;-81
2021/12/31 01:49:39;;;;;;;3.67;0.80;;;13.90;99.90;;;;;;5074132;28;20270;-81
2021/12/31 01:52:07;;;;;;;1.33;0.83;;;13.90;99.90;;;;;;5072327;28;20199;-82
2021/12/31 01:54:34;;;;;;;1.83;0.73;;;13.90;99.90;;;;;;5072415;28;20227;-79
2021/12/31 01:57:07;;;;;;;1.13;0.90;;;13.90;99.90;;;;;;5070647;28;20694;-80
2021/12/31 01:59:36;;;;;;;1.47;0.90;;;13.80;99.90;;;;;;5071922;28;20207;-81
2021/12/31 02:02:05;;;;;;;0.77;0.77;;;13.90;99.90;;;;;;5055892;28;20261;-78
2021/12/31 02:04:31;;;;;;;1.57;0.77;;;14.00;99.90;;;;;;5071672;28;20612;-80
2021/12/31 02:06:58;;;;;;;2.07;0.90;;;13.90;99.90;;;;;;5072011;28;20231;-82
2021/12/31 02:09:24;;;;;;;0.73;0.70;;;13.90;99.90;;;;;;5072187;28;20196;-80
2021/12/31 02:11:54;;;;;;;0.80;0.80;;;13.80;99.90;;;;;;5072170;28;20282;-79
2021/12/31 02:14:21;;;;;;;1.20;0.60;;;13.80;99.90;;;;;;5073341;28;20204;-80
2021/12/31 02:16:47;;;;;;;3.90;0.80;;;13.80;99.90;;;;;;5071861;28;20184;-78
2021/12/31 02:19:15;;;;;;;1.27;0.80;;;13.70;99.90;;;;;;5071999;28;20184;-82
2021/12/31 02:21:45;;;;;;;2.03;1.00;;;13.70;99.90;;;;;;5055567;28;20682;-81
2021/12/31 02:24:12;;;;;;;1.03;0.80;;;13.70;99.90;;;;;;5055625;28;20280;-79
2021/12/31 02:26:39;;;;;;;2.30;0.73;;;13.60;99.90;;;;;;5054785;28;20522;-81
2021/12/31 02:29:06;;;;;;;1.27;1.00;;;13.60;99.90;;;;;;5071958;28;21070;-80
2021/12/31 02:31:32;;;;;;;0.90;0.70;;;13.50;99.90;;;;;;5053579;28;20567;-81
2021/12/31 02:33:58;;;;;;;1.37;0.97;;;13.50;99.90;;;;;;5054820;28;20207;-79
2021/12/31 02:36:23;;;;;;;1.53;0.90;;;13.50;99.90;;;;;;5071066;28;20188;-82
2021/12/31 02:38:50;;;;;;;1.40;0.83;;;13.50;99.90;;;;;;5038253;28;20192;-81
2021/12/31 02:41:16;;;;;;;2.40;0.90;;;13.50;99.90;;;;;;5071720;28;20246;-80
2021/12/31 02:43:41;;;;;;;1.10;1.00;;;13.40;99.90;;;;;;5071395;28;20189;-80
2021/12/31 02:46:07;;;;;;;1.17;1.00;;;13.40;99.90;;;;;;5054633;28;20208;-80
2021/12/31 02:48:33;;;;;;;0.90;0.70;;;13.40;99.90;;;;;;5053618;28;20254;-79
2021/12/31 02:51:01;;;;;;;2.33;1.00;;;13.30;99.90;;;;;;5072782;28;20192;-78
2021/12/31 02:53:39;;;;;;;1.20;0.87;;;13.30;99.90;;;;;;5054533;28;20207;-79
2021/12/31 02:56:10;;;;;;;2.47;0.90;;;13.30;99.90;;;;;;5071087;28;20183;-80
2021/12/31 02:58:37;;;;;;;4.90;0.90;;;13.30;99.90;;;;;;5037760;28;20541;-81
2021/12/31 03:01:06;;;;;;;2.13;0.73;;;13.20;99.90;;;;;;5072128;28;20188;-82
2021/12/31 03:03:34;;;;;;;1.17;0.90;;;13.20;99.90;;;;;;5070918;28;20566;-81
2021/12/31 03:06:00;;;;;;;2.37;0.83;;;13.20;99.90;;;;;;5070468;28;20633;-78
2021/12/31 03:08:30;;;;;;;1.43;0.90;;;13.10;99.90;;;;;;5072591;28;20208;-82
2021/12/31 03:10:58;;;;;;;3.00;1.10;;;13.20;99.90;;;;;;5072378;28;20196;-82
2021/12/31 03:13:24;;;;;;;2.73;1.03;;;13.10;99.90;;;;;;5072242;28;20211;-79
2021/12/31 03:15:52;;;;;;;1.53;0.90;;;13.10;99.90;;;;;;5070590;28;20209;-81
2021/12/31 03:18:19;;;;;;;1.63;0.90;;;13.10;99.90;;;;;;5070649;28;20188;-81
2021/12/31 03:20:57;;;;;;;1.93;1.00;;;13.00;99.90;;;;;;5071841;28;20655;-77
2021/12/31 03:23:24;;;;;;;0.87;0.67;;;13.00;99.90;;;;;;5070924;28;20678;-80
2021/12/31 03:25:51;;;;;;;1.07;0.80;;;13.00;99.90;;;;;;5070251;28;20204;-82
2021/12/31 03:28:17;;;;;;;2.17;0.80;;;13.00;99.90;;;;;;5070638;28;20208;-79
2021/12/31 03:30:44;;;;;;;1.60;0.80;;;13.00;99.90;;;;;;5076549;28;20191;-79
2021/12/31 03:33:10;;;;;;;1.37;1.00;;;12.90;99.90;;;;;;5063879;28;20272;-81
2021/12/31 03:35:36;;;;;;;1.97;1.13;;;12.90;99.90;;;;;;5071697;28;20197;-82
2021/12/31 03:38:01;;;;;;;2.07;1.07;;;12.90;99.90;;;;;;5071871;28;20545;-81
2021/12/31 03:40:27;;;;;;;1.33;0.80;;;12.90;99.90;;;;;;5070637;28;20663;-79
2021/12/31 03:42:53;;;;;;;7.17;1.10;;;12.90;99.90;;;;;;5071648;28;20773;-82
2021/12/31 03:45:19;;;;;;;1.77;0.77;;;12.80;99.90;;;;;;5069951;28;20192;-80
2021/12/31 03:47:44;;;;;;;1.03;0.80;;;12.70;99.90;;;;;;5036994;28;20734;-81
2021/12/31 03:50:10;;;;;;;1.43;0.83;;;12.70;99.90;;;;;;5069587;28;20215;-81
2021/12/31 03:52:38;;;;;;;4.17;0.97;;;12.70;99.90;;;;;;5083331;28;20199;-81
2021/12/31 03:55:06;;;;;;;1.00;0.87;;;12.70;99.90;;;;;;5072559;28;20205;-79
2021/12/31 03:57:32;;;;;;;0.93;0.90;;;12.50;99.90;;;;;;5069809;28;20196;-79
2021/12/31 03:59:58;;;;;;;1.23;0.93;;;12.50;99.90;;;;;;5069709;28;20536;-81
2021/12/31 04:02:23;;;;;;;0.87;0.80;;;12.60;99.90;;;;;;5036823;28;20270;-79
2021/12/31 04:04:49;;;;;;;1.03;0.80;;;12.60;99.90;;;;;;5036589;28;20196;-82
2021/12/31 04:07:15;;;;;;;0.63;0.63;;;12.50;99.90;;;;;;5069759;28;20243;-79
2021/12/31 04:09:41;;;;;;;1.90;1.10;;;12.50;99.90;;;;;;5069885;28;20223;-79
2021/12/31 04:12:07;;;;;;;1.63;0.93;;;12.40;99.90;;;;;;5071611;28;20250;-81
2021/12/31 04:14:33;;;;;;;1.40;1.07;;;12.20;99.90;;;;;;5052884;28;20236;-80
2021/12/31 04:17:01;;;;;;;1.10;0.90;;;12.20;99.90;;;;;;5069443;28;20211;-79
2021/12/31 04:19:27;;;;;;;1.77;0.90;;;12.20;99.90;;;;;;5052860;28;20204;-81
2021/12/31 04:21:53;;;;;;;1.97;0.83;;;12.10;99.90;;;;;;5070948;28;20184;-80
2021/12/31 04:24:41;;;;;;;1.80;0.70;;;12.20;99.90;;;;;;5036138;28;20211;-80
2021/12/31 04:27:06;;;;;;;3.63;0.93;;;12.30;99.90;;;;;;5055571;28;20212;-81
2021/12/31 04:29:33;;;;;;;1.10;0.70;;;12.40;99.90;;;;;;5052906;28;20724;-81
2021/12/31 04:32:00;;;;;;;0.70;0.60;;;12.40;99.90;;;;;;5069210;28;20215;-79
2021/12/31 04:34:29;;;;;;;3.53;1.07;;;12.50;99.90;;;;;;5071355;28;20570;-79
2021/12/31 04:36:54;;;;;;;1.17;1.00;;;12.50;99.90;;;;;;5069391;28;20216;-78
2021/12/31 04:39:20;;;;;;;1.00;0.90;;;12.40;99.90;;;;;;5070871;28;20631;-81
2021/12/31 04:41:46;;;;;;;2.40;0.93;;;12.30;99.90;;;;;;5069141;28;20234;-81
2021/12/31 04:44:13;;;;;;;1.47;1.10;;;12.30;99.90;;;;;;5052899;28;20596;-79
2021/12/31 04:46:38;;;;;;;1.53;0.87;;;12.30;99.90;;;;;;5069133;28;20212;-79
2021/12/31 04:49:06;;;;;;;1.50;0.90;;;12.40;99.90;;;;;;5052453;28;20245;-82
2021/12/31 04:51:33;;;;;;;1.70;1.03;;;12.40;99.90;;;;;;5069593;28;20241;-78
2021/12/31 04:53:59;;;;;;;1.37;1.10;;;12.40;99.90;;;;;;5052821;28;20203;-81
2021/12/31 04:56:25;;;;;;;1.47;0.97;;;12.40;99.90;;;;;;5056191;28;20188;-79
2021/12/31 04:58:50;;;;;;;2.07;1.20;;;12.40;99.90;;;;;;5072788;28;20227;-78
2021/12/31 05:01:20;;;;;;;1.20;0.90;;;12.40;99.90;;;;;;5090013;28;20200;-80
2021/12/31 05:03:47;;;;;;;1.67;1.20;;;12.40;99.90;;;;;;5089528;28;20195;-78
2021/12/31 05:06:13;;;;;;;1.40;1.07;;;12.40;99.90;;;;;;5052924;28;20569;-79
2021/12/31 05:08:38;;;;;;;1.00;0.90;;;12.50;99.90;;;;;;5053283;28;20204;-81
2021/12/31 05:11:04;;;;;;;2.80;0.80;;;12.50;99.90;;;;;;5053106;28;20212;-81
2021/12/31 05:13:31;;;;;;;1.53;1.00;;;12.40;99.90;;;;;;5053258;28;20203;-81
2021/12/31 05:16:02;;;;;;;0.97;0.90;;;12.40;99.90;;;;;;5054375;28;20266;-82
2021/12/31 05:18:28;;;;;;;3.57;0.90;;;12.30;99.90;;;;;;5053370;28;20282;-80
2021/12/31 05:20:54;;;;;;;1.40;1.00;;;12.20;99.90;;;;;;5069172;28;20797;-82
2021/12/31 05:23:20;;;;;;;1.33;0.90;;;12.10;99.90;;;;;;5052804;28;20643;-81
2021/12/31 05:25:46;;;;;;;1.53;0.90;;;12.10;99.90;;;;;;5053761;28;20197;-79
2021/12/31 05:28:11;;;;;;;0.93;0.70;;;12.00;99.90;;;;;;5054086;28;20193;-81
2021/12/31 05:30:37;;;;;;;1.97;1.00;;;12.00;99.90;;;;;;5069390;28;20622;-79
2021/12/31 05:33:03;;;;;;;0.83;0.73;;;12.00;99.90;;;;;;5053224;28;20212;-80
2021/12/31 05:35:29;;;;;;;2.00;0.97;;;11.90;99.90;;;;;;5052428;28;20189;-78
2021/12/31 05:37:56;;;;;;;1.63;0.80;;;12.00;99.90;;;;;;5068216;28;20217;-80
2021/12/31 05:40:22;;;;;;;0.97;0.87;;;11.90;99.90;;;;;;5040581;28;20177;-81
2021/12/31 05:42:48;;;;;;;1.10;1.00;;;11.90;99.90;;;;;;5057560;28;20200;-81
2021/12/31 05:45:14;;;;;;;1.07;0.80;;;11.90;99.90;;;;;;5074074;28;20215;-81
2021/12/31 05:47:40;;;;;;;1.10;1.00;;;12.00;99.90;;;;;;5072920;28;20224;-82
2021/12/31 05:50:18;;;;;;;1.27;0.90;;;12.00;99.90;;;;;;5074403;28;20192;-81
2021/12/31 05:52:44;;;;;;;1.93;1.20;;;11.90;99.90;;;;;;5027550;28;20211;-79
2021/12/31 05:55:10;;;;;;;1.20;0.90;;;11.90;99.90;;;;;;5072370;28;20669;-79
2021/12/31 05:57:35;;;;;;;1.30;1.03;;;11.90;99.90;;;;;;5073749;28;20282;-81
2021/12/31 06:00:01;;;;;;;2.60;1.20;;;11.90;99.90;;;;;;5072418;28;20188;-81
2021/12/31 06:02:27;;;;;;;1.70;1.10;;;12.00;99.90;;;;;;5072329;28;20203;-82
2021/12/31 06:04:53;;;;;;;0.97;0.70;;;12.00;99.90;;;;;;5072035;28;20197;-82
2021/12/31 06:07:18;;;;;;;1.30;0.97;;;11.90;99.90;;;;;;5055245;28;20212;-80
2021/12/31 06:09:44;;;;;;;1.70;0.90;;;11.80;99.90;;;;;;5039076;28;20254;-80
2021/12/31 06:12:10;;;;;;;2.47;1.23;;;11.70;99.90;;;;;;5071384;28;20260;-82
2021/12/31 06:14:37;;;;;;;1.00;0.77;;;11.80;99.90;;;;;;5055221;28;20219;-80
2021/12/31 06:17:06;;;;;;;2.03;1.10;;;11.80;99.90;;;;;;5055317;28;20200;-81
2021/12/31 06:19:33;;;;;;;1.63;1.10;;;11.80;99.90;;;;;;5071640;28;20228;-79
2021/12/31 06:21:59;;;;;;;1.13;1.00;;;11.60;99.90;;;;;;5055228;28;20195;-79
2021/12/31 06:24:25;;;;;;;2.10;0.97;;;11.70;99.90;;;;;;5072039;28;20530;-80
2021/12/31 06:26:51;;;;;;;1.33;1.07;;;11.70;99.90;;;;;;5071845;28;20212;-81
2021/12/31 06:29:16;;;;;;;2.60;0.97;;;11.70;99.90;;;;;;5072134;28;20585;-81
2021/12/31 06:31:42;;;;;;;1.20;0.93;;;11.60;99.90;;;;;;5071796;28;20188;-80
2021/12/31 06:34:08;;;;;;;1.00;0.90;;;11.50;99.90;;;;;;5071781;28;20196;-80
2021/12/31 06:36:34;;;;;;;1.17;0.80;;;11.50;99.90;;;;;;5071206;28;20177;-81
2021/12/31 06:39:03;;;;;;;1.00;0.90;;;11.30;99.90;;;;;;5038052;28;20196;-79
2021/12/31 06:41:28;;;;;;;1.70;0.97;;;11.40;99.90;;;;;;5072917;28;20654;-81
2021/12/31 06:43:54;;;;;;;2.37;0.80;;;11.50;99.90;;;;;;5072944;28;20224;-79
2021/12/31 06:46:20;;;;;;;1.00;0.80;;;11.60;99.90;;;;;;5071344;28;20227;-80
2021/12/31 06:48:47;;;;;;;3.20;1.00;;;11.60;99.90;;;;;;5054740;28;20219;-79
2021/12/31 06:51:12;;;;;;;0.80;0.80;;;11.50;99.90;;;;;;5071442;28;20191;-80
2021/12/31 06:53:39;;;;;;;2.13;0.77;;;11.50;99.90;;;;;;5072683;28;20599;-80
2021/12/31 06:56:05;;;;;;;1.83;0.90;;;11.50;99.90;;;;;;5071054;28;20193;-80
2021/12/31 06:58:31;;;;;;;1.00;0.90;;;11.50;99.90;;;;;;5054306;28;20207;-78
2021/12/31 07:00:57;;;;;;;1.57;1.03;;;11.60;99.90;;;;;;5037939;28;20961;-82
2021/12/31 07:03:22;;;;;;;1.27;0.90;;;11.60;99.90;;;;;;5071363;28;20212;-82
2021/12/31 07:05:48;;;;;;;1.00;0.90;;;11.60;99.90;;;;;;5071686;28;20510;-79
2021/12/31 07:08:14;;;;;;;2.60;0.87;;;11.70;99.90;;;;;;5070708;28;20547;-79
2021/12/31 07:10:40;;;;;;;1.90;0.80;;;11.60;99.90;;;;;;5070711;28;20188;-79
2021/12/31 07:13:11;;;;;;;1.17;0.97;;;11.60;99.90;;;;;;5072276;28;20196;-79
2021/12/31 07:15:48;;;;;;;1.40;1.10;;;11.50;99.90;;;;;;5071641;28;20207;-79
2021/12/31 07:18:17;;;;;;;0.90;0.90;;;11.50;99.90;;;;;;5053837;28;20557;-80
2021/12/31 07:20:44;;;;;;;1.80;0.90;;;11.50;99.90;;;;;;5054553;28;20764;-83
2021/12/31 07:23:21;;;;;;;1.20;0.97;;;11.50;99.90;;;;;;5070661;28;20768;-79
2021/12/31 07:25:47;;;;;;;1.53;0.80;;;11.40;99.90;;;;;;5053923;28;20569;-77
2021/12/31 07:28:14;;;;;;;0.83;0.83;;;11.50;99.90;;;;;;5070452;28;20196;-82
2021/12/31 07:30:41;;;;;;;2.90;0.90;;;11.60;99.90;;;;;;5053946;28;20540;-82
2021/12/31 07:33:18;;;;;;;1.33;1.03;;;11.70;99.90;;;;;;5070569;28;20200;-81
2021/12/31 07:35:45;;;;;;;1.00;0.90;;;11.60;99.90;;;;;;5053817;28;20295;-79
2021/12/31 07:38:20;;;;;;;1.47;1.03;;;11.60;99.90;;;;;;5070543;28;20271;-81
2021/12/31 07:40:46;;;;;;;2.43;1.00;;;11.60;99.90;;;;;;5071325;28;20193;-81
2021/12/31 07:43:13;;;;;;;1.40;1.10;;;11.70;99.90;;;;;;5070923;28;20215;-79
2021/12/31 07:45:39;;;;;;;1.00;0.90;;;11.60;99.90;;;;;;5071997;28;20245;-81
2021/12/31 07:48:06;;;;;;;1.43;1.10;;;11.50;99.90;;;;;;5054316;28;20670;-78
2021/12/31 07:50:32;;;;;;;1.20;0.93;;;11.60;99.90;;;;;;5070761;28;20191;-78
2021/12/31 07:52:58;;;;;;;1.83;1.30;;;11.60;99.90;;;;;;5070962;28;20192;-80
2021/12/31 07:55:24;;;;;;;2.47;1.30;;;11.50;99.90;;;;;;5070966;28;20180;-79
2021/12/31 07:57:50;;;;;;;2.10;1.60;;;11.40;99.90;;;;;;5053805;28;20231;-79
2021/12/31 08:00:16;;;;;;;2.33;1.67;;;11.50;99.90;;;;;;5070730;28;20188;-82
2021/12/31 08:02:42;;;;;;;2.53;1.40;;;11.20;99.90;;;;;;5050058;28;20213;-81
2021/12/31 08:05:08;;;;;;;2.63;1.40;;;11.30;99.90;;;;;;5050460;28;20185;-80
2021/12/31 08:07:35;;;;;;;1.97;1.33;;;11.40;99.90;;;;;;5050098;28;20217;-81
2021/12/31 08:10:03;;;;;;;1.67;1.00;;;11.50;99.90;;;;;;5034239;28;20262;-79
2021/12/31 08:12:29;;;;;;;1.73;1.13;;;11.50;99.90;;;;;;5034212;28;20292;-78
2021/12/31 08:14:55;;;;;;;2.20;1.27;;;11.50;99.90;;;;;;5033996;28;20204;-81
2021/12/31 08:17:21;;;;;;;2.80;1.57;;;11.50;99.90;;;;;;5050226;28;20203;-81
2021/12/31 08:19:47;;;;;;;2.90;1.53;;;11.60;99.90;;;;;;5050577;28;20274;-80
2021/12/31 08:22:13;;;;;;;4.20;1.77;;;11.60;99.90;;;;;;5033517;28;20204;-81
2021/12/31 08:24:40;;;;;;;1.30;1.10;;;11.70;99.90;;;;;;5033491;28;20235;-81
2021/12/31 08:27:06;;;;;;;2.17;1.57;;;11.70;99.90;;;;;;5033802;28;20240;-81
2021/12/31 08:29:32;;;;;;;2.07;1.23;;;11.70;99.90;;;;;;5034170;28;20626;-80
2021/12/31 08:31:57;;;;;;;3.83;2.33;;;11.70;99.90;;;;;;5033408;28;20232;-80
2021/12/31 08:34:24;;;;;;;2.70;1.90;;;11.60;99.90;;;;;;5050310;28;20220;-79
2021/12/31 08:36:49;;;;;;;3.40;2.10;;;11.40;99.90;;;;;;5056094;28;20644;-81
2021/12/31 08:39:15;;;;;;;6.03;2.60;;;11.30;99.90;;;;;;5053964;28;20181;-79
2021/12/31 08:41:41;;;;;;;3.47;2.33;;;11.00;99.90;;;;;;5070912;28;20571;-81
2021/12/31 08:44:07;;;;;;;4.27;2.10;;;11.00;99.90;;;;;;5053845;28;20286;-81
2021/12/31 08:46:34;;;;;;;3.73;2.50;;;11.10;99.90;;;;;;5069715;28;20203;-79
2021/12/31 08:49:01;;;;;;;2.77;2.17;;;11.00;99.90;;;;;;5053330;28;20196;-79
2021/12/31 08:51:28;;;;;;;5.00;3.73;;;11.00;99.90;;;;;;5053666;28;20196;-78
2021/12/31 08:53:54;;;;;;;4.17;2.57;;;11.00;99.90;;;;;;5069750;28;20645;-78
2021/12/31 08:56:21;;;;;;;2.30;2.00;;;10.90;99.90;;;;;;5070384;28;20188;-79
2021/12/31 08:58:47;;;;;;;2.67;1.67;;;10.90;99.90;;;;;;5069885;28;20192;-79
2021/12/31 09:01:13;;;;;;;2.90;2.20;;;10.90;99.90;;;;;;5036839;28;20263;-82
2021/12/31 09:03:39;;;;;;;3.03;2.33;;;11.00;99.90;;;;;;5037007;28;20342;-81
2021/12/31 09:06:06;;;;;;;2.20;1.80;;;11.20;99.90;;;;;;5070957;28;20287;-80
2021/12/31 09:08:34;;;;;;;2.67;1.93;;;11.10;99.90;;;;;;5036314;28;20196;-84
2021/12/31 09:11:00;;;;;;;2.37;1.97;;;10.90;99.90;;;;;;5052864;28;20188;-82
2021/12/31 09:13:31;;;;;;;3.30;2.60;;;10.90;99.90;;;;;;5071645;28;20189;-81
2021/12/31 09:15:57;;;;;;;5.47;3.93;;;10.90;99.90;;;;;;5053696;28;20212;-82
2021/12/31 09:18:23;;;;;;;4.23;3.37;;;11.10;99.90;;;;;;5069832;28;20238;-79
2021/12/31 09:20:49;;;;;;;11.90;6.83;;;11.20;99.90;;;;;;5069691;28;20180;-80
2021/12/31 09:23:16;;;;;;;6.37;4.23;;;11.40;99.90;;;;;;5036511;28;20208;-79
2021/12/31 09:25:42;;;;;;;4.70;3.13;;;11.60;99.90;;;;;;5052097;28;20211;-80
2021/12/31 09:28:08;;;;;;;3.60;2.97;;;11.60;99.90;;;;;;5036413;28;20211;-82
2021/12/31 09:30:34;;;;;;;4.57;2.63;;;11.60;99.90;;;;;;5052795;28;20192;-80
2021/12/31 09:33:00;;;;;;;3.33;2.60;;;11.80;99.90;;;;;;5036634;28;20652;-81
2021/12/31 09:35:25;;;;;;;3.00;2.70;;;11.80;99.90;;;;;;5052937;28;20198;-81
2021/12/31 09:37:51;;;;;;;2.80;2.30;;;11.90;99.90;;;;;;5053197;28;20253;-81
2021/12/31 09:40:18;;;;;;;3.27;2.33;;;11.80;99.90;;;;;;5070032;28;20200;-80
2021/12/31 09:43:08;;;;;;;3.30;2.67;;;11.90;99.90;;;;;;5055548;28;20212;-80
2021/12/31 09:45:36;;;;;;;3.40;2.37;;;12.10;99.90;;;;;;5039786;28;20205;-82
2021/12/31 09:48:07;;;;;;;3.73;2.27;;;12.10;99.90;;;;;;5039701;28;20220;-80
2021/12/31 09:50:34;;;;;;;4.63;3.03;;;12.10;99.90;;;;;;5039333;28;20677;-81
2021/12/31 09:53:00;;;;;;;10.00;5.60;;;12.10;99.90;;;;;;5039754;28;20196;-82
2021/12/31 09:55:38;;;;;;;6.00;3.73;;;12.10;99.90;;;;;;5038558;28;20207;-81
2021/12/31 09:58:04;;;;;;;3.60;2.27;;;12.30;99.90;;;;;;5053379;28;20197;-80
2021/12/31 10:00:30;;;;;;;5.17;3.00;;;12.30;99.90;;;;;;5051919;28;20201;-82
2021/12/31 10:03:10;;;;;;;4.20;2.80;;;12.30;99.90;;;;;;5019425;28;20449;-79
2021/12/31 10:05:44;;;;;;;3.70;2.33;;;12.30;99.90;;;;;;5066252;28;20203;-79
2021/12/31 10:08:21;;;;;;;3.20;2.27;;;12.30;99.90;;;;;;5072013;28;20185;-79
2021/12/31 10:11:14;;;;;;;5.47;3.17;;;12.30;99.90;;;;;;5072296;28;20201;-81
2021/12/31 10:13:59;;;;;;;5.03;2.47;;;12.30;99.90;;;;;;5068866;28;20651;-79
2021/12/31 10:16:39;;;;;;;2.93;2.20;;;12.50;99.90;;;;;;5071672;28;20650;-79
2021/12/31 10:19:18;;;;;;;4.13;2.23;;;12.50;99.90;;;;;;5072001;28;20204;-81
2021/12/31 10:21:50;;;;;;;4.73;3.23;;;12.50;99.90;;;;;;5071852;28;20173;-78
2021/12/31 10:24:23;;;;;;;3.23;2.40;;;12.60;99.90;;;;;;5054702;28;20180;-82
2021/12/31 10:26:57;;;;;;;6.97;4.80;;;12.70;99.90;;;;;;5072549;28;20212;-79
2021/12/31 10:29:25;;;;;;;4.23;3.27;;;12.70;99.90;;;;;;5071397;28;20320;-80
2021/12/31 10:31:52;;;;;;;3.33;2.50;;;12.80;99.90;;;;;;5054701;28;20254;-79
2021/12/31 10:34:33;;;;;;;3.10;2.53;;;13.00;99.90;;;;;;5072781;28;20192;-81
2021/12/31 10:37:03;;;;;;;3.03;2.10;;;13.10;99.90;;;;;;5054664;28;20202;-79
2021/12/31 10:39:32;;;;;;;3.00;2.13;;;13.00;99.90;;;;;;5073125;28;20203;-81
2021/12/31 10:42:03;;;;;;;3.40;2.37;;;13.10;99.90;;;;;;5071462;28;20168;-79
2021/12/31 10:44:50;;;;;;;2.70;2.20;;;13.10;99.90;;;;;;5054453;28;20200;-81
2021/12/31 10:47:28;;;;;;;2.47;2.10;;;13.20;99.90;;;;;;5054438;28;20220;-80
2021/12/31 10:50:00;;;;;;;2.73;2.23;;;13.30;99.90;;;;;;5071801;28;20192;-80
2021/12/31 10:52:33;;;;;;;3.23;2.37;;;13.20;99.90;;;;;;5069906;28;20679;-81
2021/12/31 10:55:25;;;;;;;3.57;2.43;;;13.40;99.90;;;;;;5070914;28;20671;-81
2021/12/31 10:57:57;;;;;;;3.90;2.20;;;13.60;99.90;;;;;;5055606;28;20212;-80
2021/12/31 11:00:26;;;;;;;3.63;2.43;;;13.40;99.90;;;;;;5072354;28;20197;-79
2021/12/31 11:02:52;;;;;;;3.10;2.47;;;13.60;99.90;;;;;;5054059;28;20196;-79
2021/12/31 11:05:20;;;;;;;2.97;2.23;;;13.70;99.90;;;;;;5054207;28;20212;-81
2021/12/31 11:07:47;;;;;;;5.80;2.73;;;13.60;99.90;;;;;;5070834;28;20238;-79
2021/12/31 11:10:14;;;;;;;5.67;2.40;;;13.80;99.90;;;;;;5037651;28;20204;-82
2021/12/31 11:12:45;;;;;;;4.67;3.17;;;13.80;99.90;;;;;;5055124;28;20200;-81
2021/12/31 11:15:11;;;;;;;3.50;2.67;;;13.90;99.90;;;;;;5038922;28;20543;-81
2021/12/31 11:17:38;;;;;;;2.67;1.90;;;14.00;99.90;;;;;;5074349;28;20271;-81
2021/12/31 11:20:05;;;;;;;6.80;4.97;;;14.00;99.90;;;;;;5039324;28;20219;-81
2021/12/31 11:22:31;;;;;;;7.30;4.70;;;14.10;99.90;;;;;;5072414;28;20165;-80
2021/12/31 11:25:23;;;;;;;3.50;2.80;;;14.20;99.90;;;;;;5074027;28;20271;-80
2021/12/31 11:27:51;;;;;;;2.15;1.77;;;14.10;99.90;;;;;;5073032;28;20224;-80
2021/12/31 11:30:40;;;;;;;2.37;2.03;;;14.20;99.90;;;;;;5055991;28;20221;-79
2021/12/31 11:33:20;;;;;;;1.88;1.67;;;14.30;99.90;;;;;;5075535;28;20783;-79
2021/12/31 11:36:05;;;;;;;2.00;1.77;;;14.40;99.90;;;;;;5071392;28;20248;-80
2021/12/31 11:38:31;;;;;;;3.20;2.38;;;14.40;99.90;;;;;;5071413;28;20196;-79
2021/12/31 11:41:21;;;;;;;8.63;5.75;;;14.50;99.90;;;;;;5072033;28;20535;-82
2021/12/31 11:44:08;;;;;;;2.30;1.92;;;14.50;99.90;;;;;;5072036;28;20214;-80
2021/12/31 11:46:41;;;;;;;2.03;1.70;;;14.50;99.90;;;;;;5038541;28;20208;-81
2021/12/31 11:49:26;;;;;;;1.67;1.40;;;14.40;99.90;;;;;;5071094;28;20200;-81
2021/12/31 11:52:23;;;;;;;1.88;1.50;;;14.50;99.90;;;;;;5054787;28;20196;-84
2021/12/31 11:55:19;;;;;;;1.73;1.45;;;14.70;99.90;;;;;;5071906;28;20216;-82
2021/12/31 11:57:45;;;;;;;2.50;1.30;;;14.70;99.90;;;;;;5072023;28;20211;-80
2021/12/31 12:00:27;;;;;;;1.80;1.50;;;14.80;99.90;;;;;;5053882;28;20686;-79
2021/12/31 12:02:56;;;;;;;2.08;1.50;;;15.00;99.90;;;;;;5071434;28;20222;-81
2021/12/31 12:05:38;;;;;;;1.80;1.50;;;15.10;99.90;;;;;;5072778;28;20192;-81
2021/12/31 12:08:23;;;;;;;1.70;1.60;;;15.20;99.90;;;;;;5071003;28;20293;-81
2021/12/31 12:10:49;;;;;;;1.30;1.20;;;15.30;99.90;;;;;;5055401;28;20196;-82
2021/12/31 12:13:25;;;;;;;1.90;1.30;;;15.20;99.90;;;;;;5055770;28;20207;-81
2021/12/31 12:15:51;;;;;;;2.22;1.67;;;15.20;99.90;;;;;;5055335;28;20211;-79
2021/12/31 12:18:49;;;;;;;1.55;1.40;;;15.10;99.90;;;;;;5070508;28;20200;-79
2021/12/31 12:21:32;;;;;;;2.77;1.40;;;15.40;99.90;;;;;;5053344;28;20285;-78
2021/12/31 12:23:58;;;;;;;2.55;1.60;;;15.20;99.90;;;;;;5053939;28;20561;-79
2021/12/31 12:26:24;;;;;;;1.20;1.10;;;15.30;99.90;;;;;;5053414;28;20279;-79
2021/12/31 12:28:50;;;;;;;1.35;1.13;;;15.20;99.90;;;;;;5070034;28;20574;-79
2021/12/31 12:31:17;;;;;;;2.75;1.38;;;15.10;99.90;;;;;;5053583;28;20214;-82
2021/12/31 12:33:43;;;;;;;1.88;1.17;;;15.20;99.90;;;;;;5052914;28;20204;-79
2021/12/31 12:36:09;;;;;;;1.13;0.98;;;15.20;99.90;;;;;;5052940;28;20204;-79
2021/12/31 12:38:36;;;;;;;2.85;1.20;;;15.40;99.90;;;;;;5062324;28;20207;-79
2021/12/31 12:41:09;;;;;;;1.70;0.95;;;15.50;99.90;;;;;;5071431;28;20723;-82
2021/12/31 12:43:37;;;;;;;2.08;1.40;;;15.60;99.90;;;;;;5071307;28;20385;-78
2021/12/31 12:46:05;;;;;;;1.77;1.35;;;15.80;99.90;;;;;;5069268;28;20185;-79
2021/12/31 12:48:32;;;;;;;1.40;1.20;;;15.90;99.90;;;;;;5052753;28;20260;-80
2021/12/31 12:50:59;;;;;;;1.83;1.42;;;16.00;99.90;;;;;;5052683;28;20188;-79
2021/12/31 12:53:27;;;;;;;1.45;1.20;;;16.20;99.90;;;;;;5052928;28;20538;-79
2021/12/31 12:56:18;;;;;;;1.40;1.05;;;16.20;99.90;;;;;;5069358;28;20279;-81